Time,TemperatureF,DewpointF,PressureIn,WindDirection,WindDirectionDegrees,WindSpeedMPH,WindSpeedGustMPH,Humidity,HourlyPrecipIn,Conditions,Clouds,dailyrainin,SoftwareType,DateUTC
2013-03-15 00:00:00,48.4,36.0,29.85,West,269,4.0,9.0,62,0.00,,,0.10,Wunderground v.1.13,2013-03-14 23:00:00,
2013-03-15 00:10:00,49.0,35.7,29.85,WNW,300,4.0,4.0,60,0.00,,,0.10,Wunderground v.1.13,2013-03-14 23:10:00,
2013-03-15 00:15:00,49.0,36.1,29.86,WNW,302,2.0,2.0,61,0.00,,,0.10,Wunderground v.1.13,2013-03-14 23:15:00,
2013-03-15 00:25:00,48.8,36.4,29.86,NW,304,1.0,2.0,62,0.00,,,0.10,Wunderground v.1.13,2013-03-14 23:25:00,
2013-03-15 00:30:00,48.9,36.0,29.86,East,82,2.0,2.0,61,0.00,,,0.10,Wunderground v.1.13,2013-03-14 23:30:00,
2013-03-15 00:35:00,48.9,35.6,29.86,NNE,22,3.0,8.0,60,0.00,,,0.10,Wunderground v.1.13,2013-03-14 23:35:00,
2013-03-15 00:40:00,49.2,35.0,29.86,WSW,242,5.0,7.0,58,0.00,,,0.10,Wunderground v.1.13,2013-03-14 23:40:00,
2013-03-15 00:50:00,49.2,35.0,29.86,NE,38,2.0,2.0,58,0.00,,,0.10,Wunderground v.1.13,2013-03-14 23:50:00,
2013-03-15 00:55:00,49.1,34.9,29.86,NNW,341,3.0,6.0,58,0.00,,,0.10,Wunderground v.1.13,2013-03-14 23:55:00,
2013-03-15 01:05:00,49.0,34.9,29.87,WNW,298,2.0,5.0,58,0.00,,,0.00,Wunderground v.1.13,2013-03-15 00:05:00,
2013-03-15 01:10:00,49.1,34.9,29.87,ENE,74,1.0,5.0,58,0.00,,,0.00,Wunderground v.1.13,2013-03-15 00:10:00,
2013-03-15 01:15:00,48.9,35.2,29.87,ENE,65,2.0,5.0,59,0.00,,,0.00,Wunderground v.1.13,2013-03-15 00:15:00,
2013-03-15 01:20:00,48.7,35.4,29.87,ENE,58,1.0,1.0,60,0.00,,,0.00,Wunderground v.1.13,2013-03-15 00:20:00,
2013-03-15 01:25:00,48.6,34.9,29.87,NE,48,1.0,4.0,59,0.00,,,0.00,Wunderground v.1.13,2013-03-15 00:25:00,
2013-03-15 01:35:00,48.8,34.2,29.88,NW,311,4.0,4.0,57,0.00,,,0.00,Wunderground v.1.13,2013-03-15 00:35:00,
2013-03-15 01:40:00,48.9,34.8,29.88,West,259,3.0,3.0,58,0.00,,,0.00,Wunderground v.1.13,2013-03-15 00:40:00,
2013-03-15 01:50:00,48.7,34.6,29.88,WNW,294,2.0,7.0,58,0.00,,,0.00,Wunderground v.1.13,2013-03-15 00:50:00,
2013-03-15 02:00:00,48.6,34.5,29.89,North,355,3.0,3.0,58,0.00,,,0.00,Wunderground v.1.13,2013-03-15 01:00:00,
2013-03-15 02:10:00,48.4,34.3,29.89,NNW,335,2.0,2.0,58,0.00,,,0.00,Wunderground v.1.13,2013-03-15 01:10:00,
2013-03-15 02:15:00,48.3,35.0,29.89,WNW,301,2.0,3.0,60,0.00,,,0.00,Wunderground v.1.13,2013-03-15 01:15:00,
2013-03-15 02:25:00,48.4,34.3,29.88,West,275,2.0,2.0,58,0.00,,,0.00,Wunderground v.1.13,2013-03-15 01:25:00,
2013-03-15 02:30:00,48.4,34.3,29.88,East,82,3.0,3.0,58,0.00,,,0.00,Wunderground v.1.13,2013-03-15 01:30:00,
2013-03-15 02:35:00,48.1,34.4,29.88,ENE,67,2.0,2.0,59,0.00,,,0.00,Wunderground v.1.13,2013-03-15 01:35:00,
2013-03-15 02:45:00,47.8,34.6,29.88,ENE,64,1.0,1.0,60,0.00,,,0.00,Wunderground v.1.13,2013-03-15 01:45:00,
2013-03-15 02:50:00,47.6,34.4,29.89,NE,36,1.0,2.0,60,0.00,,,0.00,Wunderground v.1.13,2013-03-15 01:50:00,
2013-03-15 03:00:00,47.5,34.7,29.89,NE,36,2.0,2.0,61,0.00,,,0.00,Wunderground v.1.13,2013-03-15 02:00:00,
2013-03-15 03:10:00,47.4,34.2,29.89,NE,47,1.0,1.0,60,0.00,,,0.00,Wunderground v.1.13,2013-03-15 02:10:00,
2013-03-15 03:15:00,47.6,34.0,29.89,NE,47,1.0,1.0,59,0.00,,,0.00,Wunderground v.1.13,2013-03-15 02:15:00,
2013-03-15 03:25:00,47.8,34.2,29.88,ENE,61,3.0,3.0,59,0.00,,,0.00,Wunderground v.1.13,2013-03-15 02:25:00,
2013-03-15 03:30:00,47.6,34.0,29.88,NE,56,4.0,4.0,59,0.00,,,0.00,Wunderground v.1.13,2013-03-15 02:30:00,
2013-03-15 03:40:00,47.5,33.9,29.89,NNE,22,1.0,1.0,59,0.00,,,0.00,Wunderground v.1.13,2013-03-15 02:40:00,
2013-03-15 03:45:00,47.4,34.6,29.89,NNE,22,0.0,2.0,61,0.00,,,0.00,Wunderground v.1.13,2013-03-15 02:45:00,
2013-03-15 03:50:00,47.1,34.7,29.88,NNE,22,0.0,0.0,62,0.00,,,0.00,Wunderground v.1.13,2013-03-15 02:50:00,
2013-03-15 04:00:00,46.8,34.9,29.88,NNE,13,0.0,4.0,63,0.00,,,0.00,Wunderground v.1.13,2013-03-15 03:00:00,
2013-03-15 04:10:00,46.9,33.7,29.88,NNW,347,2.0,2.0,60,0.00,,,0.00,Wunderground v.1.13,2013-03-15 03:10:00,
2013-03-15 04:15:00,47.0,33.8,29.88,NNW,346,1.0,1.0,60,0.00,,,0.00,Wunderground v.1.13,2013-03-15 03:15:00,
2013-03-15 04:20:00,47.0,33.0,29.88,NNW,346,1.0,2.0,58,0.00,,,0.00,Wunderground v.1.13,2013-03-15 03:20:00,
2013-03-15 04:30:00,46.9,33.7,29.88,NNW,346,1.0,1.0,60,0.00,,,0.00,Wunderground v.1.13,2013-03-15 03:30:00,
2013-03-15 04:40:00,47.0,33.4,29.89,NW,315,2.0,3.0,59,0.00,,,0.00,Wunderground v.1.13,2013-03-15 03:40:00,
2013-03-15 04:45:00,47.1,33.5,29.89,West,275,3.0,3.0,59,0.00,,,0.00,Wunderground v.1.13,2013-03-15 03:45:00,
2013-03-15 04:55:00,47.3,33.7,29.89,WNW,284,4.0,8.0,59,0.00,,,0.00,Wunderground v.1.13,2013-03-15 03:55:00,
2013-03-15 05:00:00,47.1,33.9,29.89,WNW,284,4.0,4.0,60,0.00,,,0.00,Wunderground v.1.13,2013-03-15 04:00:00,
2013-03-15 05:10:00,47.2,33.6,29.89,WNW,298,2.0,2.0,59,0.00,,,0.00,Wunderground v.1.13,2013-03-15 04:10:00,
2013-03-15 05:15:00,47.1,33.9,29.89,WNW,297,1.0,1.0,60,0.00,,,0.00,Wunderground v.1.13,2013-03-15 04:15:00,
2013-03-15 05:25:00,46.8,33.6,29.90,WNW,287,1.0,6.0,60,0.00,,,0.00,Wunderground v.1.13,2013-03-15 04:25:00,
2013-03-15 05:30:00,46.9,33.3,29.90,WNW,290,2.0,2.0,59,0.00,,,0.00,Wunderground v.1.13,2013-03-15 04:30:00,
2013-03-15 05:35:00,46.8,33.2,29.90,WNW,290,1.0,1.0,59,0.00,,,0.00,Wunderground v.1.13,2013-03-15 04:35:00,
2013-03-15 05:40:00,46.7,33.5,29.91,WSW,248,0.0,2.0,60,0.00,,,0.00,Wunderground v.1.13,2013-03-15 04:40:00,
2013-03-15 05:50:00,46.5,33.8,29.91,WSW,248,0.0,0.0,61,0.00,,,0.00,Wunderground v.1.13,2013-03-15 04:50:00,
2013-03-15 05:55:00,46.2,33.9,29.91,WSW,248,0.0,0.0,62,0.00,,,0.00,Wunderground v.1.13,2013-03-15 04:55:00,
2013-03-15 06:05:00,45.8,33.9,29.91,WSW,248,0.0,1.0,63,0.00,,,0.00,Wunderground v.1.13,2013-03-15 05:05:00,
2013-03-15 06:10:00,45.7,34.2,29.92,West,263,0.0,5.0,64,0.00,,,0.00,Wunderground v.1.13,2013-03-15 05:10:00,
2013-03-15 06:15:00,45.8,33.9,29.92,WNW,289,1.0,7.0,63,0.00,,,0.00,Wunderground v.1.13,2013-03-15 05:15:00,
2013-03-15 06:20:00,46.4,33.7,29.93,WNW,290,3.0,3.0,61,0.00,,,0.00,Wunderground v.1.13,2013-03-15 05:20:00,
2013-03-15 06:30:00,46.2,33.9,29.93,WNW,292,1.0,1.0,62,0.00,,,0.00,Wunderground v.1.13,2013-03-15 05:30:00,
2013-03-15 06:35:00,45.8,33.5,29.93,WNW,292,0.0,1.0,62,0.00,,,0.00,Wunderground v.1.13,2013-03-15 05:35:00,
2013-03-15 06:40:00,45.6,33.3,29.93,WNW,292,0.0,0.0,62,0.00,,,0.00,Wunderground v.1.13,2013-03-15 05:40:00,
2013-03-15 06:50:00,45.5,33.6,29.94,WNW,292,0.0,0.0,63,0.00,,,0.00,Wunderground v.1.13,2013-03-15 05:50:00,
2013-03-15 07:00:00,45.3,33.0,29.94,North,11,1.0,9.0,62,0.00,,,0.00,Wunderground v.1.13,2013-03-15 06:00:00,
2013-03-15 07:10:00,45.8,32.3,29.94,ENE,70,3.0,5.0,59,0.00,,,0.00,Wunderground v.1.13,2013-03-15 06:10:00,
2013-03-15 07:20:00,45.9,32.4,29.95,NW,314,4.0,6.0,59,0.00,,,0.00,Wunderground v.1.13,2013-03-15 06:20:00,
2013-03-15 07:25:00,46.0,32.5,29.95,North,11,4.0,6.0,59,0.00,,,0.00,Wunderground v.1.13,2013-03-15 06:25:00,
2013-03-15 07:35:00,46.9,32.0,29.95,North,5,5.0,5.0,56,0.00,,,0.00,Wunderground v.1.13,2013-03-15 06:35:00,
2013-03-15 07:40:00,46.9,32.4,29.95,NW,314,6.0,6.0,57,0.00,,,0.00,Wunderground v.1.13,2013-03-15 06:40:00,
2013-03-15 07:50:00,46.9,32.0,29.95,NNW,337,5.0,5.0,56,0.00,,,0.00,Wunderground v.1.13,2013-03-15 06:50:00,
2013-03-15 07:55:00,47.0,32.1,29.95,ENE,75,4.0,10.0,56,0.00,,,0.00,Wunderground v.1.13,2013-03-15 06:55:00,
2013-03-15 08:00:00,47.4,32.5,29.95,North,355,5.0,12.0,56,0.00,,,0.00,Wunderground v.1.13,2013-03-15 07:00:00,
2013-03-15 08:10:00,47.9,32.0,29.96,NW,320,5.0,5.0,54,0.00,,,0.00,Wunderground v.1.13,2013-03-15 07:10:00,
2013-03-15 08:20:00,48.2,32.3,29.96,ENE,66,5.0,10.0,54,0.00,,,0.00,Wunderground v.1.13,2013-03-15 07:20:00,
2013-03-15 08:25:00,48.3,31.9,29.96,North,355,6.0,12.0,53,0.00,,,0.00,Wunderground v.1.13,2013-03-15 07:25:00,
2013-03-15 08:35:00,48.7,31.8,29.96,NNW,346,5.0,5.0,52,0.00,,,0.00,Wunderground v.1.13,2013-03-15 07:35:00,
2013-03-15 08:45:00,49.0,32.6,29.97,NE,47,5.0,5.0,53,0.00,,,0.00,Wunderground v.1.13,2013-03-15 07:45:00,
2013-03-15 08:50:00,49.2,32.3,29.97,NNE,16,5.0,11.0,52,0.00,,,0.00,Wunderground v.1.13,2013-03-15 07:50:00,
2013-03-15 09:00:00,49.3,32.4,29.98,WNW,303,7.0,7.0,52,0.00,,,0.00,Wunderground v.1.13,2013-03-15 08:00:00,
2013-03-15 09:10:00,49.4,32.5,29.98,NNW,348,6.0,11.0,52,0.00,,,0.00,Wunderground v.1.13,2013-03-15 08:10:00,
2013-03-15 09:15:00,49.4,32.5,29.98,NE,44,7.0,8.0,52,0.00,,,0.00,Wunderground v.1.13,2013-03-15 08:15:00,
2013-03-15 09:25:00,49.6,33.2,29.99,NW,325,7.0,7.0,53,0.00,,,0.00,Wunderground v.1.13,2013-03-15 08:25:00,
2013-03-15 09:30:00,49.6,33.2,29.99,West,276,7.0,10.0,53,0.00,,,0.00,Wunderground v.1.13,2013-03-15 08:30:00,
2013-03-15 09:40:00,50.0,33.1,29.99,NNE,24,7.0,7.0,52,0.00,,,0.00,Wunderground v.1.13,2013-03-15 08:40:00,
2013-03-15 09:45:00,50.2,33.7,29.99,ENE,73,6.0,6.0,53,0.00,,,0.00,Wunderground v.1.13,2013-03-15 08:45:00,
2013-03-15 09:50:00,50.6,34.1,29.99,WNW,289,4.0,11.0,53,0.00,,,0.00,Wunderground v.1.13,2013-03-15 08:50:00,
2013-03-15 10:00:00,50.8,33.8,30.00,NNW,341,6.0,6.0,52,0.00,,,0.00,Wunderground v.1.13,2013-03-15 09:00:00,
2013-03-15 10:10:00,50.5,32.5,30.00,North,5,7.0,7.0,50,0.00,,,0.00,Wunderground v.1.13,2013-03-15 09:10:00,
2013-03-15 10:15:00,50.7,33.2,30.01,NE,38,7.0,10.0,51,0.00,,,0.00,Wunderground v.1.13,2013-03-15 09:15:00,
2013-03-15 10:20:00,51.0,34.0,30.01,NNE,29,6.0,6.0,52,0.00,,,0.00,Wunderground v.1.13,2013-03-15 09:20:00,
2013-03-15 10:25:00,51.0,33.0,30.01,North,355,6.0,6.0,50,0.00,,,0.00,Wunderground v.1.13,2013-03-15 09:25:00,
2013-03-15 10:35:00,51.0,33.5,30.01,NNE,20,6.0,12.0,51,0.00,,,0.00,Wunderground v.1.13,2013-03-15 09:35:00,
2013-03-15 10:45:00,51.5,34.0,30.01,NW,321,4.0,7.0,51,0.00,,,0.00,Wunderground v.1.13,2013-03-15 09:45:00,
2013-03-15 10:50:00,52.1,33.5,30.01,WNW,303,4.0,7.0,49,0.00,,,0.00,Wunderground v.1.13,2013-03-15 09:50:00,
2013-03-15 11:00:00,52.5,33.9,30.01,NW,323,3.0,3.0,49,0.00,,,0.00,Wunderground v.1.13,2013-03-15 10:00:00,
2013-03-15 11:10:00,53.0,32.2,30.02,WNW,301,3.0,9.0,45,0.00,,,0.00,Wunderground v.1.13,2013-03-15 10:10:00,
2013-03-15 11:15:00,53.2,33.5,30.02,WNW,302,3.0,3.0,47,0.00,,,0.00,Wunderground v.1.13,2013-03-15 10:15:00,
2013-03-15 11:25:00,53.3,32.5,30.02,West,259,5.0,7.0,45,0.00,,,0.00,Wunderground v.1.13,2013-03-15 10:25:00,
2013-03-15 11:30:00,53.9,34.1,30.02,West,261,4.0,4.0,47,0.00,,,0.00,Wunderground v.1.13,2013-03-15 10:30:00,
2013-03-15 11:40:00,54.6,33.7,30.02,WSW,242,1.0,1.0,45,0.00,,,0.00,Wunderground v.1.13,2013-03-15 10:40:00,
2013-03-15 11:45:00,54.7,32.0,30.02,West,266,1.0,1.0,42,0.00,,,0.00,Wunderground v.1.13,2013-03-15 10:45:00,
2013-03-15 11:55:00,54.8,32.1,30.02,WNW,300,2.0,8.0,42,0.00,,,0.00,Wunderground v.1.13,2013-03-15 10:55:00,
2013-03-15 12:00:00,54.6,31.3,30.02,West,267,3.0,3.0,41,0.00,,,0.00,Wunderground v.1.13,2013-03-15 11:00:00,
2013-03-15 12:10:00,54.1,30.3,30.03,WNW,284,4.0,4.0,40,0.00,,,0.00,Wunderground v.1.13,2013-03-15 11:10:00,
2013-03-15 12:15:00,54.4,32.3,30.03,WNW,284,3.0,3.0,43,0.00,,,0.00,Wunderground v.1.13,2013-03-15 11:15:00,
2013-03-15 12:25:00,54.7,31.4,30.03,WNW,288,4.0,7.0,41,0.00,,,0.00,Wunderground v.1.13,2013-03-15 11:25:00,
2013-03-15 12:40:00,55.0,31.1,30.03,West,270,4.0,7.0,40,0.00,,,0.00,Wunderground v.1.13,2013-03-15 11:40:00,
2013-03-15 12:45:00,54.8,30.3,30.03,WNW,303,5.0,9.0,39,0.00,,,0.00,Wunderground v.1.13,2013-03-15 11:45:00,
2013-03-15 12:50:00,54.8,32.1,30.03,WNW,284,4.0,5.0,42,0.00,,,0.00,Wunderground v.1.13,2013-03-15 11:50:00,
2013-03-15 13:00:00,55.0,31.7,30.03,WNW,300,4.0,9.0,41,0.00,,,0.00,Wunderground v.1.13,2013-03-15 12:00:00,
2013-03-15 13:10:00,54.7,31.4,30.03,WNW,295,6.0,6.0,41,0.00,,,0.00,Wunderground v.1.13,2013-03-15 12:10:00,
2013-03-15 13:20:00,55.1,31.2,30.03,WNW,298,5.0,5.0,40,0.00,,,0.00,Wunderground v.1.13,2013-03-15 12:20:00,
2013-03-15 13:30:00,55.4,34.4,30.03,West,277,6.0,9.0,45,0.00,,,0.00,Wunderground v.1.13,2013-03-15 12:30:00,
2013-03-15 13:35:00,55.3,32.6,30.03,West,276,7.0,14.0,42,0.00,,,0.00,Wunderground v.1.13,2013-03-15 12:35:00,
2013-03-15 13:45:00,55.3,32.6,30.03,West,265,7.0,11.0,42,0.00,,,0.00,Wunderground v.1.13,2013-03-15 12:45:00,
2013-03-15 13:50:00,55.5,32.2,30.02,West,268,7.0,7.0,41,0.00,,,0.00,Wunderground v.1.13,2013-03-15 12:50:00,
2013-03-15 14:00:00,55.8,31.8,30.03,West,266,7.0,7.0,40,0.00,,,0.00,Wunderground v.1.13,2013-03-15 13:00:00,
2013-03-15 14:10:00,55.8,31.2,30.02,NNW,328,6.0,6.0,39,0.00,,,0.00,Wunderground v.1.13,2013-03-15 13:10:00,
2013-03-15 14:15:00,55.7,31.7,30.02,WNW,298,6.0,10.0,40,0.00,,,0.00,Wunderground v.1.13,2013-03-15 13:15:00,
2013-03-15 14:25:00,56.3,32.9,30.02,WSW,251,6.0,9.0,41,0.00,,,0.00,Wunderground v.1.13,2013-03-15 13:25:00,
2013-03-15 14:30:00,56.5,33.1,30.02,West,272,6.0,6.0,41,0.00,,,0.00,Wunderground v.1.13,2013-03-15 13:30:00,
2013-03-15 14:40:00,56.8,33.3,30.02,West,281,4.0,7.0,41,0.00,,,0.00,Wunderground v.1.13,2013-03-15 13:40:00,
2013-03-15 14:45:00,56.3,31.6,30.03,West,274,5.0,5.0,39,0.00,,,0.00,Wunderground v.1.13,2013-03-15 13:45:00,
2013-03-15 14:55:00,56.1,32.1,30.03,WNW,292,5.0,12.0,40,0.00,,,0.00,Wunderground v.1.13,2013-03-15 13:55:00,
2013-03-15 15:05:00,55.4,29.5,30.03,WNW,287,6.0,9.0,37,0.00,,,0.00,Wunderground v.1.13,2013-03-15 14:05:00,
2013-03-15 15:10:00,55.6,29.7,30.03,WNW,294,6.0,8.0,37,0.00,,,0.00,Wunderground v.1.13,2013-03-15 14:10:00,
2013-03-15 15:15:00,55.7,29.1,30.03,West,274,5.0,5.0,36,0.00,,,0.00,Wunderground v.1.13,2013-03-15 14:15:00,
2013-03-15 15:25:00,55.2,29.4,30.03,NW,306,4.0,9.0,37,0.00,,,0.00,Wunderground v.1.13,2013-03-15 14:25:00,
2013-03-15 15:30:00,55.5,29.6,30.03,WSW,257,5.0,5.0,37,0.00,,,0.00,Wunderground v.1.13,2013-03-15 14:30:00,
2013-03-15 15:40:00,56.0,30.1,30.03,NW,310,4.0,9.0,37,0.00,,,0.00,Wunderground v.1.13,2013-03-15 14:40:00,
2013-03-15 15:45:00,56.2,30.9,30.03,WNW,288,4.0,6.0,38,0.00,,,0.00,Wunderground v.1.13,2013-03-15 14:45:00,
2013-03-15 15:50:00,56.6,30.6,30.03,West,270,4.0,7.0,37,0.00,,,0.00,Wunderground v.1.13,2013-03-15 14:50:00,
2013-03-15 16:00:00,56.3,29.7,30.03,WNW,291,4.0,4.0,36,0.00,,,0.00,Wunderground v.1.13,2013-03-15 15:00:00,
2013-03-15 16:10:00,57.3,30.5,30.03,West,275,2.0,2.0,36,0.00,,,0.00,Wunderground v.1.13,2013-03-15 15:10:00,
2013-03-15 16:15:00,57.0,32.3,30.03,WSW,241,3.0,11.0,39,0.00,,,0.00,Wunderground v.1.13,2013-03-15 15:15:00,
2013-03-15 16:25:00,57.0,32.3,30.04,West,265,4.0,5.0,39,0.00,,,0.00,Wunderground v.1.13,2013-03-15 15:25:00,
2013-03-15 16:35:00,56.7,32.0,30.04,WSW,254,4.0,4.0,39,0.00,,,0.00,Wunderground v.1.13,2013-03-15 15:35:00,
2013-03-15 16:45:00,57.1,33.0,30.04,WSW,237,1.0,1.0,40,0.00,,,0.00,Wunderground v.1.13,2013-03-15 15:45:00,
2013-03-15 16:50:00,57.4,32.6,30.04,SW,230,1.0,7.0,39,0.00,,,0.00,Wunderground v.1.13,2013-03-15 15:50:00,
2013-03-15 17:00:00,56.9,31.5,30.04,WNW,288,3.0,3.0,38,0.00,,,0.00,Wunderground v.1.13,2013-03-15 16:00:00,
2013-03-15 17:10:00,57.0,32.3,30.04,WNW,288,1.0,1.0,39,0.00,,,0.00,Wunderground v.1.13,2013-03-15 16:10:00,
2013-03-15 17:15:00,57.3,33.2,30.04,WSW,257,1.0,4.0,40,0.00,,,0.00,Wunderground v.1.13,2013-03-15 16:15:00,
2013-03-15 17:20:00,57.4,32.0,30.04,SW,235,2.0,2.0,38,0.00,,,0.00,Wunderground v.1.13,2013-03-15 16:20:00,
2013-03-15 17:25:00,57.3,33.2,30.04,SW,229,1.0,1.0,40,0.00,,,0.00,Wunderground v.1.13,2013-03-15 16:25:00,
2013-03-15 17:35:00,55.8,37.9,30.04,East,97,2.0,2.0,51,0.00,,,0.00,Wunderground v.1.13,2013-03-15 16:35:00,
2013-03-15 17:40:00,55.4,37.6,30.04,ESE,111,2.0,7.0,51,0.00,,,0.00,Wunderground v.1.13,2013-03-15 16:40:00,
2013-03-15 17:50:00,54.5,35.7,30.04,East,80,2.0,6.0,49,0.00,,,0.00,Wunderground v.1.13,2013-03-15 16:50:00,
2013-03-15 18:00:00,54.4,34.0,30.04,East,90,1.0,1.0,46,0.00,,,0.00,Wunderground v.1.13,2013-03-15 17:00:00,
2013-03-15 18:10:00,54.2,32.2,30.05,ESE,112,1.0,4.0,43,0.00,,,0.00,Wunderground v.1.13,2013-03-15 17:10:00,
2013-03-15 18:15:00,54.3,32.8,30.05,ESE,111,1.0,1.0,44,0.00,,,0.00,Wunderground v.1.13,2013-03-15 17:15:00,
2013-03-15 18:25:00,54.4,31.8,30.05,SW,223,2.0,5.0,42,0.00,,,0.00,Wunderground v.1.13,2013-03-15 17:25:00,
2013-03-15 18:30:00,53.9,31.9,30.05,SW,223,3.0,3.0,43,0.00,,,0.00,Wunderground v.1.13,2013-03-15 17:30:00,
2013-03-15 18:40:00,53.3,32.5,30.06,SW,223,1.0,1.0,45,0.00,,,0.00,Wunderground v.1.13,2013-03-15 17:40:00,
2013-03-15 18:50:00,52.8,32.6,30.06,SW,223,1.0,1.0,46,0.00,,,0.00,Wunderground v.1.13,2013-03-15 17:50:00,
2013-03-15 19:00:00,52.2,33.1,30.06,SW,223,1.0,1.0,48,0.00,,,0.00,Wunderground v.1.13,2013-03-15 18:00:00,
2013-03-15 19:10:00,51.5,33.5,30.07,SW,223,0.0,0.0,50,0.00,,,0.00,Wunderground v.1.13,2013-03-15 18:10:00,
2013-03-15 19:20:00,50.9,34.4,30.07,SW,224,0.0,0.0,53,0.00,,,0.00,Wunderground v.1.13,2013-03-15 18:20:00,
2013-03-15 19:25:00,50.6,35.0,30.07,SW,224,0.0,0.0,55,0.00,,,0.00,Wunderground v.1.13,2013-03-15 18:25:00,
2013-03-15 19:35:00,50.3,36.9,30.08,SW,223,0.0,0.0,60,0.00,,,0.00,Wunderground v.1.13,2013-03-15 18:35:00,
2013-03-15 19:40:00,50.0,37.1,30.08,SW,222,0.0,0.0,61,0.00,,,0.00,Wunderground v.1.13,2013-03-15 18:40:00,
2013-03-15 19:50:00,49.5,37.4,30.09,SW,222,0.0,0.0,63,0.00,,,0.00,Wunderground v.1.13,2013-03-15 18:50:00,
2013-03-15 19:55:00,49.1,37.4,30.09,SW,222,0.0,0.0,64,0.00,,,0.00,Wunderground v.1.13,2013-03-15 18:55:00,
2013-03-15 20:05:00,48.4,37.9,30.09,SW,222,0.0,0.0,67,0.00,,,0.00,Wunderground v.1.13,2013-03-15 19:05:00,
2013-03-15 20:10:00,48.1,37.7,30.09,SW,222,0.0,0.0,67,0.00,,,0.00,Wunderground v.1.13,2013-03-15 19:10:00,
2013-03-15 20:15:00,47.8,37.7,30.09,SW,222,0.0,0.0,68,0.00,,,0.00,Wunderground v.1.13,2013-03-15 19:15:00,
2013-03-15 20:20:00,47.7,38.0,30.09,SW,222,0.0,0.0,69,0.00,,,0.00,Wunderground v.1.13,2013-03-15 19:20:00,
2013-03-15 20:30:00,47.6,37.9,30.10,SW,222,0.0,0.0,69,0.00,,,0.00,Wunderground v.1.13,2013-03-15 19:30:00,
2013-03-15 20:35:00,47.4,37.7,30.10,SW,222,0.0,0.0,69,0.00,,,0.00,Wunderground v.1.13,2013-03-15 19:35:00,
2013-03-15 20:40:00,47.1,37.4,30.10,SW,222,0.0,0.0,69,0.00,,,0.00,Wunderground v.1.13,2013-03-15 19:40:00,
2013-03-15 20:50:00,47.0,37.7,30.10,SW,222,0.0,0.0,70,0.00,,,0.00,Wunderground v.1.13,2013-03-15 19:50:00,
2013-03-15 21:00:00,47.2,37.9,30.11,SW,222,0.0,0.0,70,0.00,,,0.00,Wunderground v.1.13,2013-03-15 20:00:00,
2013-03-15 21:10:00,46.9,37.6,30.11,SW,223,0.0,0.0,70,0.00,,,0.00,Wunderground v.1.13,2013-03-15 20:10:00,
2013-03-15 21:15:00,46.7,37.4,30.11,SW,223,0.0,0.0,70,0.00,,,0.00,Wunderground v.1.13,2013-03-15 20:15:00,
2013-03-15 21:20:00,46.4,37.1,30.11,SW,223,0.0,0.0,70,0.00,,,0.00,Wunderground v.1.13,2013-03-15 20:20:00,
2013-03-15 21:30:00,45.6,36.7,30.11,SW,227,0.0,4.0,71,0.00,,,0.00,Wunderground v.1.13,2013-03-15 20:30:00,
2013-03-15 21:40:00,44.9,36.4,30.12,SW,230,0.0,0.0,72,0.00,,,0.00,Wunderground v.1.13,2013-03-15 20:40:00,
2013-03-15 21:45:00,44.6,36.1,30.12,SW,230,0.0,0.0,72,0.00,,,0.00,Wunderground v.1.13,2013-03-15 20:45:00,
2013-03-15 21:55:00,44.2,36.1,30.12,SW,230,0.0,0.0,73,0.00,,,0.00,Wunderground v.1.13,2013-03-15 20:55:00,
2013-03-15 22:05:00,44.1,36.0,30.12,SW,231,0.0,0.0,73,0.00,,,0.00,Wunderground v.1.13,2013-03-15 21:05:00,
2013-03-15 22:10:00,44.1,36.0,30.12,SW,231,0.0,0.0,73,0.00,,,0.00,Wunderground v.1.13,2013-03-15 21:10:00,
2013-03-15 22:20:00,43.9,35.8,30.13,SW,231,0.0,0.0,73,0.00,,,0.00,Wunderground v.1.13,2013-03-15 21:20:00,
2013-03-15 22:30:00,43.6,35.5,30.12,SW,231,0.0,0.0,73,0.00,,,0.00,Wunderground v.1.13,2013-03-15 21:30:00,
2013-03-15 22:35:00,43.6,35.9,30.12,SW,231,0.0,0.0,74,0.00,,,0.00,Wunderground v.1.13,2013-03-15 21:35:00,
2013-03-15 22:45:00,43.6,35.9,30.12,SW,230,0.0,0.0,74,0.00,,,0.00,Wunderground v.1.13,2013-03-15 21:45:00,
2013-03-15 22:55:00,43.4,35.7,30.12,SW,230,0.0,0.0,74,0.00,,,0.00,Wunderground v.1.13,2013-03-15 21:55:00,
2013-03-15 23:00:00,43.2,35.5,30.12,SW,231,0.0,0.0,74,0.00,,,0.00,Wunderground v.1.13,2013-03-15 22:00:00,
2013-03-15 23:10:00,42.9,35.2,30.11,SW,231,0.0,0.0,74,0.00,,,0.00,Wunderground v.1.13,2013-03-15 22:10:00,
2013-03-15 23:15:00,42.9,35.5,30.11,SW,231,0.0,0.0,75,0.00,,,0.00,Wunderground v.1.13,2013-03-15 22:15:00,
2013-03-15 23:25:00,42.9,35.5,30.11,SW,230,0.0,1.0,75,0.00,,,0.00,Wunderground v.1.13,2013-03-15 22:25:00,
2013-03-15 23:35:00,42.6,35.2,30.11,SW,234,0.0,0.0,75,0.00,,,0.00,Wunderground v.1.13,2013-03-15 22:35:00,
2013-03-15 23:45:00,42.4,35.0,30.11,SW,234,0.0,0.0,75,0.00,,,0.00,Wunderground v.1.13,2013-03-15 22:45:00,
2013-03-15 23:50:00,42.3,34.9,30.11,SW,236,0.0,5.0,75,0.00,,,0.00,Wunderground v.1.13,2013-03-15 22:50:00,